Time;durP1;ratioP1;P1;durP2;ratioP2;P2;SDS_P1;SDS_P2;PMS_P1;PMS_P2;Temp;Humidity;BMP_temperature;BMP_pressure;BME280_temperature;BME280_humidity;BME280_pressure;Samples;Min_cycle;Max_cycle;Signal;HPM_P1;HPM_P2
2021/04/12 00:01:18;;;;;;;13.82;9.50;;;;;;;9.48;100.00;98092.56;5031475;28;20021;-76
2021/04/12 00:04:09;;;;;;;13.38;8.52;;;;;;;9.55;100.00;98098.50;5013828;28;20391;-75
2021/04/12 00:06:43;;;;;;;12.63;9.98;;;;;;;9.47;100.00;98093.66;5030516;28;20065;-76
2021/04/12 00:09:16;;;;;;;13.40;10.10;;;;;;;9.47;100.00;98080.00;5030861;28;20031;-75
2021/04/12 00:11:51;;;;;;;14.50;9.68;;;;;;;9.44;100.00;98077.03;5030734;28;20029;-76
2021/04/12 00:14:33;;;;;;;13.15;9.48;;;;;;;9.47;100.00;98074.53;5031128;28;20034;-75
2021/04/12 00:17:04;;;;;;;12.73;10.02;;;;;;;9.54;100.00;98076.94;5031522;28;20036;-76
2021/04/12 00:19:37;;;;;;;15.02;10.48;;;;;;;9.58;100.00;98072.56;5033637;28;20029;-75
2021/04/12 00:22:19;;;;;;;13.90;9.98;;;;;;;9.55;100.00;98079.38;5029937;28;20325;-76
2021/04/12 00:25:13;;;;;;;16.63;9.75;;;;;;;9.52;100.00;98079.16;5028715;28;20021;-75
2021/04/12 00:27:45;;;;;;;14.38;10.05;;;;;;;9.46;100.00;98070.19;5027327;28;20124;-76
2021/04/12 00:30:16;;;;;;;13.88;11.00;;;;;;;9.49;100.00;98068.81;5030583;28;20068;-76
2021/04/12 00:32:48;;;;;;;15.35;11.90;;;;;;;9.47;100.00;98071.81;5032375;28;20033;-77
2021/04/12 00:35:13;;;;;;;13.23;10.90;;;;;;;9.50;100.00;98063.06;5033014;28;20029;-76
2021/04/12 00:38:07;;;;;;;16.23;11.18;;;;;;;9.51;100.00;98067.41;5032704;28;20464;-75
2021/04/12 00:40:50;;;;;;;15.18;9.90;;;;;;;9.60;100.00;98062.16;5026962;28;20039;-74
2021/04/12 00:43:27;;;;;;;11.70;9.30;;;;;;;9.70;100.00;98051.16;5028522;28;20034;-74
2021/04/12 00:46:11;;;;;;;11.77;8.20;;;;;;;9.72;100.00;98045.38;5016562;28;20034;-75
2021/04/12 00:48:39;;;;;;;10.13;7.82;;;;;;;9.73;100.00;98047.03;5030100;28;20029;-75
2021/04/12 00:51:43;;;;;;;10.32;8.75;;;;;;;9.71;100.00;98050.03;5020108;28;20064;-76
2021/04/12 00:54:26;;;;;;;10.02;7.32;;;;;;;9.71;100.00;98051.97;5026303;28;20040;-75
2021/04/12 00:56:56;;;;;;;9.82;6.10;;;;;;;9.68;100.00;98051.41;5028553;28;20021;-74
2021/04/12 00:59:49;;;;;;;8.55;7.15;;;;;;;9.81;100.00;98055.41;5029723;28;20033;-75
2021/04/12 01:02:54;;;;;;;7.65;5.57;;;;;;;9.81;100.00;98052.66;5029869;28;20025;-74
2021/04/12 01:05:33;;;;;;;7.00;5.85;;;;;;;9.82;100.00;98045.28;5025959;28;20072;-75
2021/04/12 01:08:22;;;;;;;7.93;5.07;;;;;;;9.84;100.00;98048.53;5029241;28;20561;-76
2021/04/12 01:11:09;;;;;;;7.68;5.35;;;;;;;9.90;100.00;98036.50;5013677;28;20029;-74
2021/04/12 01:13:56;;;;;;;6.20;5.30;;;;;;;9.86;100.00;98046.34;5029105;28;20029;-75
2021/04/12 01:16:28;;;;;;;9.07;5.95;;;;;;;9.93;100.00;98042.16;5011949;28;20053;-75
2021/04/12 01:19:05;;;;;;;8.88;6.25;;;;;;;9.98;100.00;98039.41;5029120;28;20033;-74
2021/04/12 01:21:36;;;;;;;6.07;5.22;;;;;;;9.95;100.00;98039.16;5029662;28;20044;-76
2021/04/12 01:24:02;;;;;;;6.18;5.47;;;;;;;9.96;100.00;98038.06;5030161;28;20112;-74
2021/04/12 01:26:57;;;;;;;6.70;5.03;;;;;;;9.95;100.00;98042.72;5029758;28;20100;-76
2021/04/12 01:29:26;;;;;;;5.90;5.30;;;;;;;9.90;100.00;98037.28;5011465;28;20029;-75
2021/04/12 01:32:14;;;;;;;5.63;5.07;;;;;;;9.92;100.00;98028.81;5011618;28;20025;-75
2021/04/12 01:35:13;;;;;;;6.90;5.00;;;;;;;9.87;100.00;98031.56;4986038;28;20529;-75
2021/04/12 01:37:59;;;;;;;7.35;5.38;;;;;;;9.94;100.00;98029.31;5011744;28;20606;-75
2021/04/12 01:40:36;;;;;;;5.80;5.20;;;;;;;9.91;100.00;98024.44;5033537;28;20088;-76
2021/04/12 01:43:13;;;;;;;7.95;6.07;;;;;;;9.89;100.00;98026.66;5035331;28;20099;-74
2021/04/12 01:46:01;;;;;;;7.30;6.55;;;;;;;9.92;100.00;98026.91;5033430;28;20542;-75
2021/04/12 01:49:11;;;;;;;5.70;4.97;;;;;;;9.91;100.00;98029.91;5033261;28;20482;-75
2021/04/12 01:51:57;;;;;;;5.45;4.35;;;;;;;9.88;100.00;98033.22;5032890;28;20049;-78
2021/04/12 01:54:38;;;;;;;7.25;5.40;;;;;;;9.87;100.00;98034.31;5032978;28;20033;-76
2021/04/12 01:57:28;;;;;;;6.00;5.38;;;;;;;9.90;100.00;98033.75;5031114;28;20039;-74
2021/04/12 02:00:21;;;;;;;4.85;3.90;;;;;;;9.89;100.00;98029.38;5029617;28;20056;-75
2021/04/12 02:03:24;;;;;;;4.55;3.63;;;;;;;10.01;100.00;98033.34;5033215;28;20113;-74
2021/04/12 02:06:04;;;;;;;8.02;3.80;;;;;;;10.06;100.00;98032.47;5032666;28;20037;-74
2021/04/12 02:08:51;;;;;;;5.22;3.47;;;;;;;10.04;100.00;98030.03;5031750;28;20022;-76
2021/04/12 02:11:32;;;;;;;7.05;5.43;;;;;;;9.98;100.00;98031.19;5030389;28;20041;-74
2021/04/12 02:14:35;;;;;;;4.88;3.30;;;;;;;10.01;100.00;98029.81;5030818;28;20056;-74
2021/04/12 02:17:12;;;;;;;9.52;4.85;;;;;;;10.03;100.00;98025.66;5032091;28;20029;-75
2021/04/12 02:20:06;;;;;;;3.13;2.72;;;;;;;9.97;100.00;98026.00;5031507;28;20021;-75
2021/04/12 02:22:59;;;;;;;3.55;3.15;;;;;;;10.10;100.00;98028.06;5031759;28;20028;-74
2021/04/12 02:26:06;;;;;;;3.13;2.80;;;;;;;10.07;100.00;98021.25;5032886;28;20030;-75
2021/04/12 02:28:49;;;;;;;4.15;2.80;;;;;;;10.03;100.00;98016.66;4994571;28;20461;-75
2021/04/12 02:31:23;;;;;;;4.45;2.90;;;;;;;10.00;100.00;98025.44;5032680;28;20059;-75
2021/04/12 02:33:58;;;;;;;4.13;3.70;;;;;;;9.98;100.00;98022.19;5031467;28;20038;-76
2021/04/12 02:36:29;;;;;;;6.53;3.33;;;;;;;9.99;100.00;98023.81;5030673;28;20537;-75
2021/04/12 02:39:32;;;;;;;3.17;2.40;;;;;;;10.01;100.00;98021.59;5032557;28;20037;-76
2021/04/12 02:42:20;;;;;;;8.32;3.10;;;;;;;10.07;100.00;98013.06;5014985;28;20034;-76
2021/04/12 02:44:48;;;;;;;5.90;2.95;;;;;;;10.09;100.00;98010.84;5034740;28;20052;-78
2021/04/12 02:47:33;;;;;;;3.10;2.83;;;;;;;10.15;100.00;98017.09;5037521;28;20084;-75
2021/04/12 02:50:10;;;;;;;3.85;3.45;;;;;;;10.14;100.00;98020.94;5033985;28;20041;-77
2021/04/12 02:53:01;;;;;;;6.82;3.53;;;;;;;10.21;100.00;98014.00;5032184;28;20042;-76
2021/04/12 02:55:46;;;;;;;3.55;2.95;;;;;;;10.10;100.00;98015.22;5014513;28;20077;-76
2021/04/12 02:58:39;;;;;;;5.57;3.65;;;;;;;9.99;100.00;98018.34;5032173;28;21551;-74
2021/04/12 03:01:37;;;;;;;6.60;3.67;;;;;;;9.91;100.00;98013.50;5012258;28;20029;-76
2021/04/12 03:04:37;;;;;;;4.13;3.30;;;;;;;9.87;100.00;98016.00;4998910;28;20091;-76
2021/04/12 03:07:08;;;;;;;3.45;3.00;;;;;;;9.88;100.00;98017.63;5014358;28;20041;-75
2021/04/12 03:09:37;;;;;;;3.97;3.47;;;;;;;9.81;100.00;98010.88;5013998;28;20026;-76
2021/04/12 03:12:08;;;;;;;3.30;2.90;;;;;;;9.83;100.00;98009.50;5014078;28;20057;-75
2021/04/12 03:14:56;;;;;;;6.55;4.20;;;;;;;9.80;100.00;98020.19;5031950;28;20025;-75
2021/04/12 03:17:21;;;;;;;6.97;4.30;;;;;;;9.83;100.00;98005.94;5032129;28;20025;-75
2021/04/12 03:20:11;;;;;;;11.00;6.72;;;;;;;9.69;100.00;98009.34;5014173;28;20392;-74
2021/04/12 03:22:51;;;;;;;8.95;6.45;;;;;;;9.63;100.00;98015.97;5012040;28;20034;-75
2021/04/12 03:25:56;;;;;;;12.80;9.35;;;;;;;9.60;100.00;98016.56;5031387;28;20040;-76
2021/04/12 03:28:40;;;;;;;13.43;8.50;;;;;;;9.52;100.00;98005.44;5032564;28;20140;-77
2021/04/12 03:31:18;;;;;;;8.75;6.30;;;;;;;9.48;100.00;97997.00;5034301;28;20030;-76
2021/04/12 03:34:19;;;;;;;8.77;6.82;;;;;;;9.55;100.00;98007.59;5028770;28;20548;-76
2021/04/12 03:36:56;;;;;;;7.65;6.43;;;;;;;9.54;100.00;97998.59;5000687;28;20044;-75
2021/04/12 03:39:34;;;;;;;9.38;6.97;;;;;;;9.57;100.00;98000.75;5013917;28;20034;-75
2021/04/12 03:42:55;;;;;;;7.80;6.18;;;;;;;9.62;100.00;97997.94;5031353;28;20058;-76
2021/04/12 03:45:25;;;;;;;6.70;4.90;;;;;;;9.59;100.00;97998.53;5000399;28;20136;-77
2021/04/12 03:48:21;;;;;;;7.07;5.20;;;;;;;9.61;100.00;97996.34;5013198;28;20060;-73
2021/04/12 03:51:05;;;;;;;5.43;4.63;;;;;;;9.60;100.00;97994.72;5030942;28;20167;-75
2021/04/12 03:54:24;;;;;;;8.30;6.32;;;;;;;9.52;100.00;98000.78;5013944;28;20044;-75
2021/04/12 03:57:02;;;;;;;9.20;6.53;;;;;;;9.51;100.00;98001.91;4950488;29;20540;-77
2021/04/12 03:59:42;;;;;;;10.90;8.25;;;;;;;9.49;100.00;97995.88;4950166;29;20164;-77
2021/04/12 04:02:33;;;;;;;16.02;8.05;;;;;;;9.46;100.00;97996.47;4991950;28;20033;-75
2021/04/12 04:05:27;;;;;;;14.95;9.80;;;;;;;9.42;100.00;98003.63;5010224;28;20399;-74
2021/04/12 04:08:10;;;;;;;12.07;10.77;;;;;;;9.41;100.00;97996.53;5027229;28;20392;-75
2021/04/12 04:10:45;;;;;;;17.48;11.40;;;;;;;9.40;100.00;98002.25;5027903;28;20087;-75
2021/04/12 04:13:22;;;;;;;13.32;10.00;;;;;;;9.44;100.00;98004.13;5026845;28;20059;-75
2021/04/12 04:16:24;;;;;;;13.20;8.60;;;;;;;9.56;100.00;97996.38;5026907;28;20446;-74
2021/04/12 04:18:53;;;;;;;14.40;9.95;;;;;;;9.56;100.00;98006.47;5009310;28;20067;-75
2021/04/12 04:21:19;;;;;;;14.05;9.85;;;;;;;9.57;100.00;98000.75;5028838;28;20076;-76
2021/04/12 04:24:19;;;;;;;12.98;8.55;;;;;;;9.56;100.00;97999.09;5029708;28;20026;-75
2021/04/12 04:27:22;;;;;;;13.07;7.45;;;;;;;9.61;100.00;98004.53;5011132;28;20475;-75
2021/04/12 04:29:50;;;;;;;15.38;7.60;;;;;;;9.57;100.00;98000.75;5026828;28;20518;-75
2021/04/12 04:32:34;;;;;;;9.43;7.07;;;;;;;9.61;100.00;98001.00;5012010;28;20120;-75
2021/04/12 04:35:02;;;;;;;11.88;7.00;;;;;;;9.65;100.00;98008.31;5028185;28;20040;-76
2021/04/12 04:38:04;;;;;;;7.35;6.10;;;;;;;9.71;100.00;98009.06;5029621;28;20025;-77
2021/04/12 04:40:51;;;;;;;6.40;5.30;;;;;;;9.77;100.00;98023.50;5028575;28;20488;-75
2021/04/12 04:43:17;;;;;;;8.00;6.35;;;;;;;9.73;100.00;98036.09;5028164;28;20466;-75
2021/04/12 04:46:13;;;;;;;10.13;5.38;;;;;;;9.71;100.00;98024.66;5009974;28;20036;-75
2021/04/12 04:48:53;;;;;;;10.55;6.80;;;;;;;9.69;100.00;98020.28;5027474;28;20083;-76
2021/04/12 04:51:33;;;;;;;8.52;6.10;;;;;;;9.72;100.00;98018.88;5031277;28;20045;-76
2021/04/12 04:54:24;;;;;;;10.88;7.25;;;;;;;9.76;100.00;98027.31;5015661;28;20463;-75
2021/04/12 04:57:19;;;;;;;8.77;7.35;;;;;;;9.65;100.00;98030.16;5026336;28;20470;-75
2021/04/12 05:00:04;;;;;;;9.10;5.15;;;;;;;9.63;100.00;98026.91;4977920;28;20065;-74
2021/04/12 05:02:58;;;;;;;8.30;4.82;;;;;;;9.70;100.00;98029.28;5028326;28;20052;-75
2021/04/12 05:05:27;;;;;;;9.70;6.43;;;;;;;9.73;100.00;98045.09;5009480;28;20866;-75
2021/04/12 05:08:19;;;;;;;9.18;4.55;;;;;;;9.69;100.00;98031.22;5028691;28;20056;-75
2021/04/12 05:10:51;;;;;;;10.52;6.50;;;;;;;9.74;100.00;98032.28;5028570;28;20487;-76
2021/04/12 05:13:47;;;;;;;8.63;6.55;;;;;;;9.74;100.00;98032.28;5030685;28;20033;-75
2021/04/12 05:16:34;;;;;;;6.50;5.20;;;;;;;9.77;100.00;98042.63;5030377;28;20032;-75
2021/04/12 05:19:14;;;;;;;6.32;4.55;;;;;;;9.77;100.00;98040.72;5032288;28;20029;-74
2021/04/12 05:22:10;;;;;;;14.10;5.13;;;;;;;9.83;100.00;98047.75;5030687;28;20026;-77
2021/04/12 05:24:46;;;;;;;4.55;3.78;;;;;;;9.67;100.00;98047.06;5032624;28;20110;-78
2021/04/12 05:27:26;;;;;;;6.00;3.88;;;;;;;9.68;100.00;98048.69;5031973;28;20022;-79
2021/04/12 05:30:19;;;;;;;6.05;4.53;;;;;;;9.76;100.00;98038.25;5031563;28;20033;-80
2021/04/12 05:32:56;;;;;;;5.82;3.97;;;;;;;9.80;100.00;98042.03;5034691;28;20045;-78
2021/04/12 05:35:28;;;;;;;6.75;4.57;;;;;;;9.78;100.00;98050.50;5029504;28;20347;-78
2021/04/12 05:38:37;;;;;;;8.95;3.85;;;;;;;9.74;100.00;98043.19;5021436;28;20021;-78
2021/04/12 05:41:35;;;;;;;9.15;3.80;;;;;;;9.81;100.00;98039.00;5031264;28;20439;-83
2021/04/12 05:44:15;;;;;;;;;;;;;;;9.86;100.00;98046.34;5038013;28;20034;-87
2021/04/12 05:47:02;;;;;;;6.55;4.07;;;;;;;9.82;100.00;98056.22;5019404;28;19971;-82
2021/04/12 05:50:00;;;;;;;7.68;4.47;;;;;;;9.90;100.00;98052.88;4997189;28;20472;-79
2021/04/12 05:52:56;;;;;;;6.70;4.53;;;;;;;9.80;100.00;98052.97;5013688;28;20065;-79
2021/04/12 05:55:40;;;;;;;8.43;3.95;;;;;;;9.88;100.00;98046.88;4996632;28;20418;-80
2021/04/12 05:58:43;;;;;;;5.78;4.30;;;;;;;9.96;100.00;98049.00;5012781;28;20091;-81
2021/04/12 06:01:27;;;;;;;5.60;3.67;;;;;;;9.97;100.00;98047.88;4996618;28;21635;-75
2021/04/12 06:04:11;;;;;;;8.13;4.55;;;;;;;9.92;100.00;98047.94;5035537;28;20049;-75
2021/04/12 06:07:10;;;;;;;6.22;4.22;;;;;;;10.03;100.00;98052.19;5035355;28;20033;-87
2021/04/12 06:09:39;;;;;;;15.50;4.40;;;;;;;9.94;100.00;98048.44;5035098;28;20595;-81
2021/04/12 06:12:35;;;;;;;5.93;3.33;;;;;;;10.04;100.00;98046.44;5020352;28;20025;-82
2021/04/12 06:15:38;;;;;;;7.80;4.22;;;;;;;10.26;100.00;98040.47;5014510;28;20497;-75
2021/04/12 06:18:22;;;;;;;5.15;3.90;;;;;;;10.30;100.00;98044.28;5030901;28;20041;-75
2021/04/12 06:21:08;;;;;;;6.68;3.83;;;;;;;10.41;100.00;98037.56;5032622;28;20044;-74
2021/04/12 06:24:01;;;;;;;6.22;3.53;;;;;;;10.45;100.00;98046.00;5032764;28;20040;-75
2021/04/12 06:27:04;;;;;;;4.20;2.67;;;;;;;10.34;100.00;98042.56;5015708;28;20052;-76
2021/04/12 06:30:02;;;;;;;4.50;3.10;;;;;;;10.22;100.00;98039.44;5036052;28;20018;-76
2021/04/12 06:32:42;;;;;;;4.22;3.03;;;;;;;10.12;100.00;98050.44;5032375;28;20509;-74
2021/04/12 06:35:17;;;;;;;7.18;4.25;;;;;;;10.17;100.00;98048.50;5031635;28;20414;-78
2021/04/12 06:38:01;;;;;;;9.85;2.78;;;;;;;10.02;100.00;98056.81;5031702;28;20423;-76
2021/04/12 06:40:59;;;;;;;3.33;2.70;;;;;;;10.08;100.00;98054.88;5031665;28;20029;-75
2021/04/12 06:43:55;;;;;;;4.85;2.80;;;;;;;10.03;100.00;98053.00;5017854;28;20033;-74
2021/04/12 06:46:59;;;;;;;5.28;3.08;;;;;;;10.11;100.00;98054.28;5029846;28;20068;-75
2021/04/12 06:50:02;;;;;;;2.67;2.30;;;;;;;9.96;100.00;98041.59;5030478;28;20096;-75
2021/04/12 06:53:05;;;;;;;4.10;3.22;;;;;;;10.10;100.00;98041.72;5031060;28;20494;-74
2021/04/12 06:55:55;;;;;;;4.22;2.95;;;;;;;10.38;100.00;98053.72;5030753;28;20032;-76
2021/04/12 06:58:58;;;;;;;3.63;2.58;;;;;;;10.50;100.00;98043.19;5031577;28;20030;-75
2021/04/12 07:02:00;;;;;;;6.57;2.92;;;;;;;10.64;100.00;98049.59;5031815;28;20041;-74
2021/04/12 07:04:34;;;;;;;5.10;2.67;;;;;;;10.63;100.00;98051.50;5031779;28;20033;-74
2021/04/12 07:07:25;;;;;;;5.15;2.35;;;;;;;10.71;100.00;98053.56;5031736;28;20079;-75
2021/04/12 07:10:15;;;;;;;3.28;2.45;;;;;;;10.80;100.00;98061.16;5030850;28;20041;-74
2021/04/12 07:12:59;;;;;;;7.35;2.65;;;;;;;10.91;100.00;98055.22;5030784;28;20108;-75
2021/04/12 07:15:46;;;;;;;3.10;2.38;;;;;;;10.86;100.00;98049.03;5014558;28;20030;-75
2021/04/12 07:18:45;;;;;;;3.17;2.63;;;;;;;10.71;100.00;98053.56;5016106;28;20036;-76
2021/04/12 07:21:23;;;;;;;3.20;2.75;;;;;;;10.54;100.00;98050.53;5032724;28;20045;-75
2021/04/12 07:23:54;;;;;;;6.57;2.70;;;;;;;10.68;100.00;98059.63;5031522;28;20030;-75
2021/04/12 07:26:22;;;;;;;5.68;2.78;;;;;;;10.64;100.00;98057.78;5014208;28;20026;-75
2021/04/12 07:29:14;;;;;;;5.25;3.85;;;;;;;10.69;100.00;98050.34;5031590;28;20426;-75
2021/04/12 07:32:20;;;;;;;6.05;3.08;;;;;;;10.64;100.00;98044.13;5030247;28;20055;-75
2021/04/12 07:34:54;;;;;;;6.18;2.53;;;;;;;10.76;100.00;98044.50;5031430;28;20124;-75
2021/04/12 07:37:38;;;;;;;3.13;2.63;;;;;;;10.70;100.00;98049.22;5031481;28;20501;-75
2021/04/12 07:40:15;;;;;;;4.65;2.17;;;;;;;10.89;100.00;98054.72;5011182;28;20049;-74
2021/04/12 07:43:02;;;;;;;2.83;2.10;;;;;;;10.81;100.00;98051.84;5010456;28;20061;-75
2021/04/12 07:45:53;;;;;;;;;;;;;;;10.77;100.00;98053.53;5011163;28;20038;-74
2021/04/12 07:48:54;;;;;;;4.68;2.30;;;;;;;10.80;100.00;98061.16;5011529;28;20277;-75
2021/04/12 07:51:56;;;;;;;4.57;3.05;;;;;;;10.69;100.00;98052.25;5010931;28;20066;-76
2021/04/12 07:54:37;;;;;;;3.65;2.92;;;;;;;10.57;100.00;98052.69;4993530;28;20128;-75
2021/04/12 07:57:20;;;;;;;4.95;3.30;;;;;;;10.57;100.00;98054.59;5010308;28;20112;-75
2021/04/12 08:00:04;;;;;;;4.78;3.65;;;;;;;10.52;100.00;98049.19;5011316;28;20034;-75
2021/04/12 08:02:38;;;;;;;6.07;5.35;;;;;;;10.45;100.00;98049.56;4993309;28;20037;-75
2021/04/12 08:05:41;;;;;;;7.50;6.40;;;;;;;10.44;100.00;98055.31;5011151;28;20037;-75
2021/04/12 08:08:13;;;;;;;11.07;5.05;;;;;;;10.48;100.00;98053.63;5011072;28;20033;-76
2021/04/12 08:11:09;;;;;;;10.05;5.13;;;;;;;10.42;100.00;98055.59;5011020;28;20045;-75
2021/04/12 08:14:12;;;;;;;10.48;5.10;;;;;;;10.49;100.00;98056.06;5010796;28;20402;-75
2021/04/12 08:17:08;;;;;;;6.50;5.60;;;;;;;10.58;100.00;98054.31;5010978;28;20597;-74
2021/04/12 08:19:55;;;;;;;8.10;5.60;;;;;;;10.61;100.00;98047.44;5010959;28;20026;-75
2021/04/12 08:22:45;;;;;;;15.35;6.45;;;;;;;10.73;100.00;98051.38;5010016;28;20553;-75
2021/04/12 08:25:48;;;;;;;7.93;6.07;;;;;;;10.67;100.00;98049.81;5014237;28;20106;-75
2021/04/12 08:28:38;;;;;;;10.30;6.60;;;;;;;10.51;100.00;98053.84;5024875;28;20033;-76
2021/04/12 08:31:25;;;;;;;9.63;6.18;;;;;;;10.56;100.00;98050.22;5011062;28;20416;-75
2021/04/12 08:34:12;;;;;;;8.43;5.93;;;;;;;10.49;100.00;98050.59;5010201;28;20109;-75
2021/04/12 08:36:53;;;;;;;13.25;6.25;;;;;;;10.57;100.00;98039.00;5010539;28;20045;-73
2021/04/12 08:39:47;;;;;;;7.50;6.25;;;;;;;10.60;100.00;98045.81;5010985;28;20905;-74
2021/04/12 08:42:38;;;;;;;8.32;6.85;;;;;;;10.59;100.00;98041.44;4993147;28;20065;-77
2021/04/12 08:45:40;;;;;;;7.22;6.53;;;;;;;10.72;100.00;98038.81;5012214;28;20033;-76
2021/04/12 08:48:33;;;;;;;9.13;6.63;;;;;;;10.88;100.00;98030.38;5030344;28;20103;-76
2021/04/12 08:51:27;;;;;;;7.05;6.40;;;;;;;10.98;100.00;98041.19;5011736;28;20053;-74
2021/04/12 08:54:17;;;;;;;9.65;6.07;;;;;;;11.15;100.00;98041.50;5030273;28;20025;-75
2021/04/12 08:57:40;;;;;;;8.25;6.13;;;;;;;11.13;100.00;98040.97;5030068;28;20564;-75
2021/04/12 09:00:08;;;;;;;8.38;6.03;;;;;;;11.08;100.00;98041.88;4949585;29;20476;-76
2021/04/12 09:02:52;;;;;;;11.73;7.53;;;;;;;10.89;100.00;98035.56;4949717;29;20031;-76
2021/04/12 09:05:41;;;;;;;8.95;6.70;;;;;;;10.90;100.00;98048.13;4988525;28;20108;-76
2021/04/12 09:08:44;;;;;;;8.20;7.20;;;;;;;10.81;100.00;98038.16;5029308;28;20049;-75
2021/04/12 09:11:12;;;;;;;7.78;6.97;;;;;;;10.78;100.00;98045.00;5029824;28;20026;-75
2021/04/12 09:13:53;;;;;;;9.77;7.90;;;;;;;10.79;100.00;98043.91;5030392;28;20029;-75
2021/04/12 09:16:25;;;;;;;9.15;7.03;;;;;;;10.64;100.00;98049.59;5030623;28;20025;-76
2021/04/12 09:19:03;;;;;;;9.68;7.47;;;;;;;10.64;100.00;98041.38;5029657;28;20053;-75
2021/04/12 09:22:06;;;;;;;9.30;7.72;;;;;;;10.68;100.00;98036.97;5010161;28;20494;-75
2021/04/12 09:24:56;;;;;;;7.07;5.65;;;;;;;10.73;100.00;98037.69;5010273;28;20030;-76
2021/04/12 09:27:43;;;;;;;11.82;6.63;;;;;;;10.67;100.00;98036.16;5010420;28;20112;-76
2021/04/12 09:30:24;;;;;;;8.18;6.43;;;;;;;10.68;100.00;98037.75;5014430;28;20116;-76
2021/04/12 09:33:04;;;;;;;8.15;6.38;;;;;;;10.69;100.00;98039.38;5029962;28;20032;-75
2021/04/12 09:35:48;;;;;;;8.68;6.65;;;;;;;10.81;100.00;98038.16;5029910;28;20022;-76
2021/04/12 09:38:31;;;;;;;7.90;5.57;;;;;;;10.73;100.00;98034.97;5029031;28;20033;-76
2021/04/12 09:41:25;;;;;;;7.10;6.05;;;;;;;10.84;100.00;98041.09;5011226;28;20033;-74
2021/04/12 09:44:28;;;;;;;6.63;5.93;;;;;;;11.02;100.00;98028.53;5029718;28;20434;-76
2021/04/12 09:47:18;;;;;;;10.77;6.38;;;;;;;11.06;100.00;98037.78;5011747;28;20032;-76
2021/04/12 09:50:14;;;;;;;19.23;8.05;;;;;;;11.08;100.00;98030.09;5029498;28;20041;-75
2021/04/12 09:52:49;;;;;;;10.05;6.30;;;;;;;11.02;100.00;98021.16;5029369;28;20481;-75
2021/04/12 09:55:26;;;;;;;13.00;7.70;;;;;;;11.17;100.00;98022.84;5012056;28;20038;-75
2021/04/12 09:58:11;;;;;;;8.68;5.50;;;;;;;11.25;100.00;98013.94;5012207;28;20075;-75
2021/04/12 10:01:12;;;;;;;9.05;6.45;;;;;;;11.32;100.00;98021.78;5009574;28;20108;-77
2021/04/12 10:03:44;;;;;;;7.95;6.05;;;;;;;11.18;100.00;98010.78;5033051;28;20029;-75
2021/04/12 10:06:30;;;;;;;7.15;4.63;;;;;;;11.32;97.88;98016.28;5033394;28;20500;-74
2021/04/12 10:09:14;;;;;;;5.43;3.80;;;;;;;11.37;98.45;98017.03;5031740;28;20036;-74
2021/04/12 10:12:28;;;;;;;6.07;3.38;;;;;;;11.41;98.45;98017.25;5030016;28;20047;-75
2021/04/12 10:14:56;;;;;;;4.47;2.65;;;;;;;11.29;96.77;98012.22;4979490;28;20398;-75
2021/04/12 10:17:53;;;;;;;4.97;2.97;;;;;;;11.20;95.21;98006.63;5013088;28;20057;-76
2021/04/12 10:20:27;;;;;;;3.10;2.80;;;;;;;11.26;95.61;98016.38;4979952;28;20034;-76
2021/04/12 10:23:10;;;;;;;4.13;3.30;;;;;;;11.30;96.99;98008.41;5013177;28;20161;-75
2021/04/12 10:25:48;;;;;;;4.82;3.05;;;;;;;11.40;98.14;98010.97;5026615;28;20034;-76
2021/04/12 10:28:28;;;;;;;4.45;2.42;;;;;;;11.43;97.00;98007.63;5033166;28;20025;-75
2021/04/12 10:31:27;;;;;;;6.20;3.10;;;;;;;11.50;96.95;98005.31;5032244;28;20088;-74
2021/04/12 10:34:01;;;;;;;5.22;3.17;;;;;;;11.55;96.85;98001.69;5012820;28;20038;-76
2021/04/12 10:36:33;;;;;;;6.65;3.22;;;;;;;11.57;96.88;98002.19;5019320;28;20036;-76
2021/04/12 10:39:04;;;;;;;4.68;3.10;;;;;;;11.60;96.48;98004.31;5032854;28;20061;-76
2021/04/12 10:41:32;;;;;;;4.38;3.30;;;;;;;11.63;97.72;98010.00;5012615;28;20030;-75
2021/04/12 10:44:01;;;;;;;5.07;3.53;;;;;;;11.62;97.31;98008.38;5012529;28;20558;-76
2021/04/12 10:46:39;;;;;;;3.58;2.60;;;;;;;11.50;95.98;98005.31;5012422;28;20033;-76
2021/04/12 10:49:29;;;;;;;4.18;3.47;;;;;;;11.50;96.62;98005.31;5010576;28;20138;-75
2021/04/12 10:52:12;;;;;;;6.22;2.70;;;;;;;11.41;96.33;97996.16;5012230;28;20141;-75
2021/04/12 10:55:04;;;;;;;3.78;3.20;;;;;;;11.45;96.86;97994.44;5012771;28;20026;-76
2021/04/12 10:57:35;;;;;;;5.85;2.88;;;;;;;11.49;97.97;97992.75;5012780;28;20613;-76
2021/04/12 11:00:19;;;;;;;2.92;2.55;;;;;;;11.59;98.08;97992.53;4994728;28;20038;-76
2021/04/12 11:02:47;;;;;;;6.30;2.35;;;;;;;11.75;97.81;97996.66;5022632;28;20073;-75
2021/04/12 11:05:21;;;;;;;4.00;2.55;;;;;;;11.85;95.59;97990.19;5030974;28;20104;-75
2021/04/12 11:08:28;;;;;;;5.40;2.90;;;;;;;11.90;95.94;97987.38;5031024;28;20031;-74
2021/04/12 11:11:15;;;;;;;3.40;2.20;;;;;;;11.81;96.05;97995.47;5020287;28;20053;-76
2021/04/12 11:14:17;;;;;;;5.57;2.75;;;;;;;11.79;97.08;97984.00;5012234;28;20029;-76
2021/04/12 11:16:55;;;;;;;9.70;3.53;;;;;;;11.78;95.73;97987.03;5030324;28;20541;-75
2021/04/12 11:19:46;;;;;;;5.60;2.78;;;;;;;11.95;95.90;97991.94;5030434;28;20083;-75
2021/04/12 11:22:30;;;;;;;7.55;3.67;;;;;;;11.77;95.54;97979.94;5017607;28;20124;-75
2021/04/12 11:25:04;;;;;;;3.33;1.88;;;;;;;11.76;94.75;97987.34;5028843;28;20044;-77
2021/04/12 11:27:41;;;;;;;5.03;2.47;;;;;;;11.77;94.19;97982.69;5008853;28;20539;-76
2021/04/12 11:30:28;;;;;;;2.13;1.92;;;;;;;11.76;93.35;97981.88;5038111;28;20034;-87
2021/04/12 11:32:57;;;;;;;2.83;2.33;;;;;;;11.75;94.25;97976.66;5043066;28;20081;-86
2021/04/12 11:35:51;;;;;;;4.10;2.67;;;;;;;12.00;93.39;97984.41;5044021;28;20056;-86
2021/04/12 11:38:21;;;;;;;8.77;2.20;;;;;;;12.24;94.31;97984.22;4997269;28;20128;-87
2021/04/12 11:41:18;;;;;;;4.50;2.30;;;;;;;12.15;95.08;97983.31;5038111;28;20017;-87
2021/04/12 11:43:53;;;;;;;2.85;2.60;;;;;;;12.40;94.11;97988.28;5039420;28;20040;-87
2021/04/12 11:46:34;;;;;;;5.45;2.90;;;;;;;12.16;92.58;97982.19;5045631;28;20100;-87
2021/04/12 11:49:24;;;;;;;4.00;2.20;;;;;;;12.04;92.53;97982.69;5044616;28;20072;-84
2021/04/12 11:52:05;;;;;;;3.10;2.28;;;;;;;12.09;94.13;97990.03;5020796;28;20045;-86
2021/04/12 11:54:56;;;;;;;3.33;2.10;;;;;;;12.06;94.69;97985.94;5020986;28;20059;-86
2021/04/12 11:57:28;;;;;;;5.13;2.10;;;;;;;12.34;94.26;97992.25;5033873;28;20479;-85
2021/04/12 12:00:14;;;;;;;5.38;2.83;;;;;;;12.35;95.28;97978.22;5034371;28;20105;-80
2021/04/12 12:02:50;;;;;;;4.40;2.25;;;;;;;12.28;95.91;97982.47;5020999;28;20036;-76
2021/04/12 12:05:25;;;;;;;3.28;2.50;;;;;;;12.00;97.11;97978.94;5033971;28;20048;-76
2021/04/12 12:07:58;;;;;;;2.00;1.80;;;;;;;11.89;97.71;97979.44;5029643;28;20027;-78
2021/04/12 12:10:58;;;;;;;5.15;2.25;;;;;;;11.92;97.29;97970.59;5011984;28;20422;-74
2021/04/12 12:13:49;;;;;;;6.70;2.72;;;;;;;11.97;99.42;97970.50;5026107;28;20048;-76
2021/04/12 12:16:32;;;;;;;2.60;2.40;;;;;;;11.94;99.03;97968.38;5012092;28;20029;-75
2021/04/12 12:19:04;;;;;;;3.20;2.75;;;;;;;12.09;98.29;97968.09;5025326;28;20032;-75
2021/04/12 12:21:42;;;;;;;7.88;2.50;;;;;;;12.09;96.76;97957.13;5025905;28;20386;-75
2021/04/12 12:24:32;;;;;;;3.88;2.90;;;;;;;12.15;98.29;97967.66;5022176;28;20064;-75
2021/04/12 12:27:07;;;;;;;4.72;3.63;;;;;;;12.09;98.24;97962.59;5022005;28;20033;-76
2021/04/12 12:29:43;;;;;;;10.10;3.30;;;;;;;11.86;98.98;97963.59;5015433;28;20022;-75
2021/04/12 12:32:15;;;;;;;4.38;2.97;;;;;;;11.79;99.41;97959.34;5028006;28;20032;-76
2021/04/12 12:35:01;;;;;;;6.25;2.95;;;;;;;12.02;99.20;97953.97;5025647;28;20606;-75
2021/04/12 12:37:49;;;;;;;4.53;2.60;;;;;;;11.92;98.92;97959.66;5028925;28;20032;-75
2021/04/12 12:40:22;;;;;;;5.40;2.75;;;;;;;11.95;97.40;97959.03;5032124;28;20045;-78
2021/04/12 12:42:52;;;;;;;3.90;3.25;;;;;;;11.99;98.73;97957.31;5014983;28;20033;-76
2021/04/12 12:45:24;;;;;;;5.38;2.72;;;;;;;11.86;99.56;97950.72;5010384;28;20426;-75
2021/04/12 12:47:55;;;;;;;4.63;3.40;;;;;;;11.87;99.81;97954.28;5025934;28;20030;-75
2021/04/12 12:50:29;;;;;;;6.03;3.10;;;;;;;11.93;99.28;97950.31;5028035;28;20045;-78
2021/04/12 12:53:05;;;;;;;3.38;2.67;;;;;;;12.03;99.97;97941.91;5026039;28;20022;-75